createdAt,value
2023-02-27T00:02:24.194Z,100368.60
2023-02-27T00:04:51.130Z,100378.27
2023-02-27T00:07:17.843Z,100393.21
2023-02-27T00:09:44.472Z,100396.88
2023-02-27T00:12:12.302Z,100402.39
2023-02-27T00:14:38.967Z,100402.66
2023-02-27T00:17:05.578Z,100403.58
2023-02-27T00:19:32.223Z,100404.88
2023-02-27T00:21:58.850Z,100412.09
2023-02-27T00:24:25.638Z,100415.22
2023-02-27T00:26:52.208Z,100423.99
2023-02-27T00:29:19.960Z,100424.86
2023-02-27T00:31:51.629Z,100427.58
2023-02-27T00:34:18.466Z,100429.99
2023-02-27T00:36:45.130Z,100431.27
2023-02-27T00:39:20.328Z,100436.98
2023-02-27T00:41:47.524Z,100437.66
2023-02-27T00:44:14.152Z,100439.04
2023-02-27T00:46:40.844Z,100432.02
2023-02-27T00:49:07.493Z,100433.17
2023-02-27T00:51:34.210Z,100430.20
2023-02-27T00:54:03.820Z,100436.11
2023-02-27T00:56:30.478Z,100438.95
2023-02-27T00:58:57.181Z,100440.77
2023-02-27T01:01:23.911Z,100440.15
2023-02-27T01:03:50.588Z,100440.38
2023-02-27T01:06:17.181Z,100442.83
2023-02-27T01:08:43.901Z,100443.79
2023-02-27T01:11:10.588Z,100446.83
2023-02-27T01:13:37.548Z,100449.83
2023-02-27T01:16:04.452Z,100451.42
2023-02-27T01:18:31.454Z,100453.77
2023-02-27T01:20:58.094Z,100457.09
2023-02-27T01:23:24.732Z,100458.70
2023-02-27T01:25:51.311Z,100461.02
2023-02-27T01:28:17.956Z,100462.74
2023-02-27T01:30:44.833Z,100467.61
2023-02-27T01:33:14.365Z,100473.84
2023-02-27T01:35:41.033Z,100467.70
2023-02-27T01:38:07.677Z,100471.21
2023-02-27T01:40:39.708Z,100472.90
2023-02-27T01:43:07.612Z,100469.95
2023-02-27T01:45:39.146Z,100467.27
2023-02-27T01:48:05.751Z,100471.52
2023-02-27T01:50:35.783Z,100472.20
2023-02-27T01:53:05.319Z,100470.75
2023-02-27T01:55:35.180Z,100472.45
2023-02-27T01:58:01.953Z,100481.64
2023-02-27T02:00:29.565Z,100475.51
2023-02-27T02:03:18.652Z,100471.65
2023-02-27T02:05:47.147Z,100471.98
2023-02-27T02:08:18.748Z,100474.16
2023-02-27T02:10:47.752Z,100469.40
2023-02-27T02:13:16.200Z,100476.42
2023-02-27T02:15:53.732Z,100474.37
2023-02-27T02:18:32.176Z,100473.70
2023-02-27T02:21:28.423Z,100475.74
2023-02-27T02:24:13.764Z,100475.09
2023-02-27T02:27:11.977Z,100476.40
2023-02-27T02:29:52.839Z,100472.48
2023-02-27T02:32:53.828Z,100478.88
2023-02-27T02:35:42.211Z,100471.77
2023-02-27T02:38:50.256Z,100477.38
2023-02-27T02:41:49.276Z,100477.59
2023-02-27T02:44:19.258Z,100484.04
2023-02-27T02:47:05.259Z,100488.45
2023-02-27T02:49:56.189Z,100489.11
2023-02-27T02:52:39.068Z,100497.81
2023-02-27T02:55:24.488Z,100502.40
2023-02-27T02:57:54.457Z,100505.92
2023-02-27T03:00:35.540Z,100512.67
2023-02-27T03:03:14.313Z,100519.48
2023-02-27T03:06:01.405Z,100523.25
2023-02-27T03:08:37.327Z,100519.90
2023-02-27T03:11:05.587Z,100517.99
2023-02-27T03:13:40.182Z,100518.02
2023-02-27T03:16:13.569Z,100522.76
2023-02-27T03:18:54.152Z,100524.09
2023-02-27T03:21:29.933Z,100529.16
2023-02-27T03:24:02.522Z,100530.13
2023-02-27T03:26:35.044Z,100537.65
2023-02-27T03:29:06.516Z,100538.81
2023-02-27T03:31:40.776Z,100543.98
2023-02-27T03:34:23.564Z,100544.80
2023-02-27T03:36:56.354Z,100550.73
2023-02-27T03:39:47.008Z,100554.50
2023-02-27T03:42:34.643Z,100550.89
2023-02-27T03:45:31.363Z,100555.58
2023-02-27T03:47:58.654Z,100558.38
2023-02-27T03:50:25.473Z,100562.23
2023-02-27T03:52:52.880Z,100559.52
2023-02-27T03:55:25.643Z,100561.41
2023-02-27T03:57:53.746Z,100563.92
2023-02-27T04:00:23.931Z,100570.80
2023-02-27T04:02:54.271Z,100573.27
2023-02-27T04:05:23.918Z,100572.46
2023-02-27T04:08:02.990Z,100573.75
2023-02-27T04:10:44.127Z,100574.98
2023-02-27T04:13:35.563Z,100579.42
2023-02-27T04:16:17.405Z,100576.40
2023-02-27T04:18:56.983Z,100576.71
2023-02-27T04:21:48.873Z,100578.42
2023-02-27T04:24:38.107Z,100578.41
2023-02-27T04:27:38.280Z,100579.77
2023-02-27T04:30:19.915Z,100577.48
2023-02-27T04:32:55.627Z,100585.98
2023-02-27T04:35:29.431Z,100594.95
2023-02-27T04:38:03.369Z,100592.21
2023-02-27T04:40:39.521Z,100594.94
2023-02-27T04:43:10.407Z,100598.94
2023-02-27T04:45:41.375Z,100600.38
2023-02-27T04:48:19.649Z,100606.70
2023-02-27T04:50:53.802Z,100609.31
2023-02-27T04:53:25.774Z,100613.39
2023-02-27T04:55:57.657Z,100610.45
2023-02-27T04:58:42.364Z,100607.98
2023-02-27T05:01:15.101Z,100611.70
2023-02-27T05:03:47.263Z,100608.56
2023-02-27T05:06:15.064Z,100603.77
2023-02-27T05:08:49.625Z,100605.03
2023-02-27T05:11:35.746Z,100606.98
2023-02-27T05:14:12.518Z,100603.30
2023-02-27T05:16:45.901Z,100601.16
2023-02-27T05:19:13.092Z,100602.79
2023-02-27T05:22:09.636Z,100604.29
2023-02-27T05:24:49.930Z,100601.42
2023-02-27T05:27:22.568Z,100603.55
2023-02-27T05:29:54.720Z,100598.59
2023-02-27T05:32:46.589Z,100600.64
2023-02-27T05:35:34.179Z,100594.30
2023-02-27T05:38:36.692Z,100597.88
2023-02-27T05:41:21.858Z,100601.23
2023-02-27T05:44:03.591Z,100598.58
2023-02-27T05:46:35.622Z,100604.84
2023-02-27T05:49:11.869Z,100611.48
2023-02-27T05:51:41.564Z,100611.84
2023-02-27T05:54:23.224Z,100615.34
2023-02-27T05:56:53.576Z,100613.89
2023-02-27T05:59:59.557Z,100616.42
2023-02-27T06:02:26.340Z,100616.22
2023-02-27T06:04:54.842Z,100619.66
2023-02-27T06:07:22.856Z,100621.99
2023-02-27T06:09:50.576Z,100628.16
2023-02-27T06:12:17.374Z,100630.81
2023-02-27T06:14:44.044Z,100633.69
2023-02-27T06:17:10.784Z,100641.42
2023-02-27T06:19:37.440Z,100647.90
2023-02-27T06:22:04.076Z,100654.08
2023-02-27T06:24:30.746Z,100654.95
2023-02-27T06:26:57.373Z,100658.52
2023-02-27T06:29:23.994Z,100664.61
2023-02-27T06:31:50.642Z,100663.05
2023-02-27T06:34:17.543Z,100667.58
2023-02-27T06:36:44.265Z,100668.49
2023-02-27T06:39:10.912Z,100670.98
2023-02-27T06:41:37.600Z,100675.69
2023-02-27T06:44:04.211Z,100680.56
2023-02-27T06:46:31.237Z,100680.73
2023-02-27T06:48:58.084Z,100685.43
2023-02-27T06:51:24.758Z,100687.70
2023-02-27T06:53:51.424Z,100690.92
2023-02-27T06:56:18.240Z,100697.25
2023-02-27T06:58:44.857Z,100698.55
2023-02-27T07:01:13.442Z,100710.39
2023-02-27T07:03:40.160Z,100708.29
2023-02-27T07:06:06.917Z,100711.00
2023-02-27T07:08:33.583Z,100717.67
2023-02-27T07:11:00.243Z,100721.36
2023-02-27T07:13:26.809Z,100725.42
2023-02-27T07:15:54.229Z,100723.77
2023-02-27T07:18:21.166Z,100729.98
2023-02-27T07:20:51.334Z,100734.20
2023-02-27T07:23:18.869Z,100736.82
2023-02-27T07:25:47.589Z,100740.50
2023-02-27T07:28:15.062Z,100740.20
2023-02-27T07:30:41.725Z,100748.80
2023-02-27T07:33:08.650Z,100752.69
2023-02-27T07:35:35.271Z,100752.71
2023-02-27T07:38:02.094Z,100763.93
2023-02-27T07:40:28.805Z,100764.84
2023-02-27T07:42:55.533Z,100770.20
2023-02-27T07:45:23.148Z,100772.89
2023-02-27T07:47:49.751Z,100779.23
2023-02-27T07:50:16.776Z,100788.42
2023-02-27T07:52:44.400Z,100791.68
2023-02-27T07:55:12.743Z,100795.62
2023-02-27T07:57:39.725Z,100801.50
2023-02-27T08:00:09.536Z,100802.45
2023-02-27T08:02:39.782Z,100808.00
2023-02-27T08:05:07.434Z,100810.56
2023-02-27T08:07:34.121Z,100812.60
2023-02-27T08:10:00.699Z,100812.23
2023-02-27T08:12:27.274Z,100809.53
2023-02-27T08:14:53.943Z,100811.58
2023-02-27T08:17:20.602Z,100811.67
2023-02-27T08:19:47.268Z,100812.66
2023-02-27T08:22:13.854Z,100808.30
2023-02-27T08:24:40.628Z,100813.80
2023-02-27T08:27:07.868Z,100815.73
2023-02-27T08:29:34.573Z,100812.13
2023-02-27T08:32:02.232Z,100810.89
2023-02-27T08:34:30.274Z,100816.19
2023-02-27T08:36:56.960Z,100818.84
2023-02-27T08:39:24.217Z,100818.96
2023-02-27T08:41:52.858Z,100821.83
2023-02-27T08:44:20.782Z,100816.35
2023-02-27T08:46:47.507Z,100816.89
2023-02-27T08:49:14.623Z,100817.42
2023-02-27T08:51:41.317Z,100815.56
2023-02-27T08:54:07.959Z,100817.92
2023-02-27T08:56:35.011Z,100818.19
2023-02-27T08:59:02.269Z,100811.14
2023-02-27T09:01:34.302Z,100806.77
2023-02-27T09:04:06.318Z,100813.45
2023-02-27T09:06:35.781Z,100821.25
2023-02-27T09:09:03.893Z,100817.64
2023-02-27T09:11:31.083Z,100820.69
2023-02-27T09:13:58.970Z,100820.84
2023-02-27T09:16:25.953Z,100821.87
2023-02-27T09:18:52.908Z,100818.48
2023-02-27T09:21:20.549Z,100824.98
2023-02-27T09:23:47.152Z,100823.47
2023-02-27T09:26:13.887Z,100824.23
2023-02-27T09:28:40.499Z,100827.79
2023-02-27T09:31:08.024Z,100827.65
2023-02-27T09:33:36.045Z,100829.16
2023-02-27T09:36:05.741Z,100827.04
2023-02-27T09:38:34.640Z,100829.89
2023-02-27T09:41:02.830Z,100831.41
2023-02-27T09:43:49.643Z,100835.44
2023-02-27T09:46:21.726Z,100836.72
2023-02-27T09:49:01.317Z,100840.73
2023-02-27T09:51:29.068Z,100842.21
2023-02-27T09:53:59.952Z,100847.40
2023-02-27T09:56:31.061Z,100848.23
2023-02-27T09:59:16.583Z,100850.02
2023-02-27T10:02:06.086Z,100852.65
2023-02-27T10:05:07.828Z,100857.83
2023-02-27T10:07:52.651Z,100857.34
2023-02-27T10:10:34.619Z,100858.87
2023-02-27T10:13:24.047Z,100861.60
2023-02-27T10:15:53.190Z,100861.08
2023-02-27T10:18:28.990Z,100854.44
2023-02-27T10:21:02.766Z,100854.83
2023-02-27T10:23:46.830Z,100857.43
2023-02-27T10:26:24.917Z,100863.14
2023-02-27T10:28:51.474Z,100862.25
2023-02-27T10:31:26.145Z,100858.13
2023-02-27T10:33:55.513Z,100863.53
2023-02-27T10:36:33.605Z,100861.34
2023-02-27T10:39:10.744Z,100864.08
2023-02-27T10:41:40.009Z,100870.23
2023-02-27T10:44:06.969Z,100862.38
2023-02-27T10:46:38.244Z,100863.13
2023-02-27T10:49:20.031Z,100867.21
2023-02-27T10:52:04.156Z,100860.26
2023-02-27T10:54:30.697Z,100859.04
2023-02-27T10:57:01.295Z,100860.36
2023-02-27T10:59:38.341Z,100862.87
2023-02-27T11:02:17.198Z,100858.24
2023-02-27T11:04:56.303Z,100857.35
2023-02-27T11:07:32.701Z,100862.30
2023-02-27T11:10:21.849Z,100855.77
2023-02-27T11:13:05.302Z,100857.20
2023-02-27T11:15:38.258Z,100854.35
2023-02-27T11:18:21.648Z,100860.25
2023-02-27T11:20:50.884Z,100845.61
2023-02-27T11:23:21.758Z,100839.78
2023-02-27T11:25:48.936Z,100839.20
2023-02-27T11:28:28.995Z,100834.16
2023-02-27T11:31:06.091Z,100837.27
2023-02-27T11:33:39.918Z,100832.85
2023-02-27T11:36:07.212Z,100837.08
2023-02-27T11:38:34.886Z,100829.60
2023-02-27T11:41:07.554Z,100827.27
2023-02-27T11:43:47.490Z,100830.05
2023-02-27T11:46:46.586Z,100823.81
2023-02-27T11:49:39.961Z,100821.04
2023-02-27T11:52:06.610Z,100820.55
2023-02-27T11:54:43.122Z,100823.34
2023-02-27T11:57:32.501Z,100815.02
2023-02-27T12:00:26.460Z,100820.96
2023-02-27T12:03:06.808Z,100818.15
2023-02-27T12:05:40.192Z,100816.34
2023-02-27T12:08:15.820Z,100819.89
2023-02-27T12:10:52.085Z,100820.28
2023-02-27T12:13:30.215Z,100820.52
2023-02-27T12:16:16.781Z,100806.96
2023-02-27T12:18:54.258Z,100812.06
2023-02-27T12:21:24.408Z,100810.09
2023-02-27T12:23:57.586Z,100808.70
2023-02-27T12:26:27.451Z,100809.08
2023-02-27T12:29:09.339Z,100814.58
2023-02-27T12:31:36.059Z,100815.45
2023-02-27T12:34:13.021Z,100813.20
2023-02-27T12:36:39.755Z,100816.70
2023-02-27T12:39:23.880Z,100810.59
2023-02-27T12:42:09.672Z,100813.14
2023-02-27T12:44:41.937Z,100807.05
2023-02-27T12:47:44.546Z,100808.09
2023-02-27T12:50:18.542Z,100808.50
2023-02-27T12:52:45.070Z,100813.64
2023-02-27T12:55:23.604Z,100807.60
2023-02-27T12:58:15.263Z,100808.06
2023-02-27T13:01:00.906Z,100811.28
2023-02-27T13:03:35.181Z,100806.98
2023-02-27T13:06:20.971Z,100809.27
2023-02-27T13:09:29.254Z,100811.16
2023-02-27T13:12:05.634Z,100814.73
2023-02-27T13:14:44.058Z,100804.61
2023-02-27T13:17:27.016Z,100807.68
2023-02-27T13:20:16.535Z,100811.91
2023-02-27T13:23:11.267Z,100806.64
2023-02-27T13:25:43.172Z,100799.66
2023-02-27T13:28:16.742Z,100804.98
2023-02-27T13:30:49.090Z,100801.20
2023-02-27T13:33:22.500Z,100803.93
2023-02-27T13:35:52.892Z,100805.81
2023-02-27T13:38:46.005Z,100807.66
2023-02-27T13:41:25.070Z,100810.73
2023-02-27T13:43:53.349Z,100811.85
2023-02-27T13:46:27.115Z,100813.98
2023-02-27T13:48:55.435Z,100815.49
2023-02-27T13:51:43.265Z,100820.46
2023-02-27T13:54:18.606Z,100822.30
2023-02-27T13:56:54.373Z,100831.90
2023-02-27T13:59:30.371Z,100832.76
2023-02-27T14:02:01.876Z,100836.51
2023-02-27T14:04:34.462Z,100845.98
2023-02-27T14:07:18.717Z,100843.79
2023-02-27T14:09:47.657Z,100850.69
2023-02-27T14:12:45.352Z,100848.10
2023-02-27T14:15:18.428Z,100853.74
2023-02-27T14:17:49.516Z,100853.67
2023-02-27T14:20:27.576Z,100854.34
2023-02-27T14:23:21.310Z,100865.63
2023-02-27T14:25:53.273Z,100864.73
2023-02-27T14:28:35.148Z,100870.67
2023-02-27T14:31:08.121Z,100870.50
2023-02-27T14:33:41.062Z,100875.63
2023-02-27T14:36:29.599Z,100881.34
2023-02-27T14:38:58.349Z,100880.04
2023-02-27T14:41:36.124Z,100883.58
2023-02-27T14:44:03.098Z,100888.27
2023-02-27T14:46:34.709Z,100891.04
2023-02-27T14:49:16.206Z,100889.09
2023-02-27T14:51:43.673Z,100890.70
2023-02-27T14:54:16.714Z,100890.73
2023-02-27T14:56:57.063Z,100888.78
2023-02-27T14:59:29.835Z,100892.99
2023-02-27T15:02:02.008Z,100896.75
2023-02-27T15:04:31.220Z,100905.20
2023-02-27T15:06:59.917Z,100898.13
2023-02-27T15:09:42.946Z,100898.36
2023-02-27T15:12:16.679Z,100900.93
2023-02-27T15:14:49.735Z,100905.32
2023-02-27T15:17:21.914Z,100910.63
2023-02-27T15:19:51.721Z,100907.66
2023-02-27T15:22:39.692Z,100903.90
2023-02-27T15:25:08.168Z,100905.83
2023-02-27T15:27:37.674Z,100910.61
2023-02-27T15:30:05.144Z,100911.19
2023-02-27T15:32:43.301Z,100915.90
2023-02-27T15:35:20.405Z,100906.44
2023-02-27T15:37:54.039Z,100912.22
2023-02-27T15:40:25.057Z,100917.34
2023-02-27T15:42:52.971Z,100916.62
2023-02-27T15:45:24.663Z,100919.11
2023-02-27T15:47:51.547Z,100922.34
2023-02-27T15:50:18.925Z,100920.89
2023-02-27T15:52:55.312Z,100928.50
2023-02-27T15:55:28.308Z,100933.39
2023-02-27T15:58:02.877Z,100936.40
2023-02-27T16:00:31.837Z,100937.75
2023-02-27T16:02:59.672Z,100940.80
2023-02-27T16:05:41.767Z,100942.88
2023-02-27T16:08:17.382Z,100953.22
2023-02-27T16:10:46.048Z,100954.48
2023-02-27T16:13:33.091Z,100957.16
2023-02-27T16:16:02.376Z,100962.73
2023-02-27T16:18:36.188Z,100960.48
2023-02-27T16:21:11.317Z,100963.42
2023-02-27T16:23:38.029Z,100967.14
2023-02-27T16:26:21.764Z,100972.52
2023-02-27T16:29:05.510Z,100973.38
2023-02-27T16:31:37.757Z,100977.20
2023-02-27T16:34:13.585Z,100978.63
2023-02-27T16:36:42.049Z,100978.59
2023-02-27T16:39:14.714Z,100981.16
2023-02-27T16:41:41.334Z,100986.04
2023-02-27T16:44:07.980Z,100991.65
2023-02-27T16:46:34.836Z,100993.75
2023-02-27T16:49:14.215Z,100998.80
2023-02-27T16:51:46.539Z,100994.98
2023-02-27T16:54:14.068Z,100996.98
2023-02-27T16:56:41.305Z,100999.14
2023-02-27T16:59:27.759Z,101002.61
2023-02-27T17:01:56.625Z,101007.76
2023-02-27T17:04:27.716Z,101011.46
2023-02-27T17:06:56.468Z,101014.70
2023-02-27T17:09:23.344Z,101015.17
2023-02-27T17:11:50.262Z,101016.38
2023-02-27T17:14:17.255Z,101019.95
2023-02-27T17:16:44.001Z,101025.38
2023-02-27T17:19:10.654Z,101028.11
2023-02-27T17:21:37.349Z,101035.16
2023-02-27T17:24:04.344Z,101033.91
2023-02-27T17:26:31.225Z,101036.38
2023-02-27T17:28:58.613Z,101041.54
2023-02-27T17:31:26.076Z,101042.67
2023-02-27T17:33:53.785Z,101042.79
2023-02-27T17:36:22.431Z,101051.14
2023-02-27T17:38:54.775Z,101050.11
2023-02-27T17:41:21.528Z,101057.71
2023-02-27T17:43:53.662Z,101061.59
2023-02-27T17:46:20.243Z,101065.13
2023-02-27T17:48:46.874Z,101064.58
2023-02-27T17:51:15.238Z,101069.66
2023-02-27T17:53:42.440Z,101071.21
2023-02-27T17:56:10.430Z,101075.17
2023-02-27T17:58:37.083Z,101076.34
2023-02-27T18:01:17.274Z,101077.85
2023-02-27T18:03:46.866Z,101084.92
2023-02-27T18:06:13.628Z,101083.43
2023-02-27T18:08:41.027Z,101087.60
2023-02-27T18:11:16.880Z,101090.00
2023-02-27T18:13:43.577Z,101089.74
2023-02-27T18:16:12.336Z,101092.70
2023-02-27T18:18:40.673Z,101090.85
2023-02-27T18:21:13.925Z,101094.55
2023-02-27T18:23:41.047Z,101097.73
2023-02-27T18:26:12.504Z,101101.29
2023-02-27T18:28:43.984Z,101099.11
2023-02-27T18:31:29.604Z,101106.71
2023-02-27T18:33:56.833Z,101110.76
2023-02-27T18:36:23.620Z,101117.88
2023-02-27T18:38:51.074Z,101116.98
2023-02-27T18:41:17.765Z,101119.04
2023-02-27T18:43:44.623Z,101119.23
2023-02-27T18:46:12.891Z,101120.15
2023-02-27T18:48:40.629Z,101128.49
2023-02-27T18:51:12.286Z,101124.81
2023-02-27T18:53:41.308Z,101129.05
2023-02-27T18:56:09.324Z,101129.64
2023-02-27T18:58:36.629Z,101134.70
2023-02-27T19:01:04.802Z,101134.84
2023-02-27T19:03:32.107Z,101136.33
2023-02-27T19:05:59.359Z,101137.67
2023-02-27T19:08:29.200Z,101134.33
2023-02-27T19:10:59.316Z,101139.36
2023-02-27T19:13:26.576Z,101145.52
2023-02-27T19:15:53.933Z,101153.16
2023-02-27T19:18:20.680Z,101153.34
2023-02-27T19:20:47.660Z,101155.05
2023-02-27T19:23:14.233Z,101158.23
2023-02-27T19:25:42.119Z,101159.54
2023-02-27T19:28:11.133Z,101159.94
2023-02-27T19:30:39.874Z,101155.36
2023-02-27T19:33:06.717Z,101159.69
2023-02-27T19:35:33.604Z,101162.86
2023-02-27T19:38:00.260Z,101167.65
2023-02-27T19:40:28.166Z,101166.66
2023-02-27T19:42:55.066Z,101169.12
2023-02-27T19:45:22.213Z,101170.16
2023-02-27T19:47:48.954Z,101174.56
2023-02-27T19:50:16.418Z,101176.52
2023-02-27T19:52:43.065Z,101179.44
2023-02-27T19:55:10.281Z,101184.15
2023-02-27T19:57:37.392Z,101179.77
2023-02-27T20:00:07.895Z,101181.35
2023-02-27T20:02:41.796Z,101184.66
2023-02-27T20:05:08.993Z,101185.36
2023-02-27T20:07:35.712Z,101183.28
2023-02-27T20:10:02.342Z,101187.23
2023-02-27T20:12:30.222Z,101191.05
2023-02-27T20:14:57.024Z,101191.69
2023-02-27T20:17:23.661Z,101193.55
2023-02-27T20:19:50.394Z,101192.89
2023-02-27T20:22:17.101Z,101196.66
2023-02-27T20:24:44.870Z,101199.87
2023-02-27T20:27:12.151Z,101205.17
2023-02-27T20:29:40.509Z,101204.37
2023-02-27T20:32:08.989Z,101206.94
2023-02-27T20:34:35.976Z,101207.98
2023-02-27T20:37:03.184Z,101209.98
2023-02-27T20:39:30.486Z,101210.58
2023-02-27T20:41:57.272Z,101216.39
2023-02-27T20:44:24.752Z,101218.66
2023-02-27T20:46:51.711Z,101222.86
2023-02-27T20:49:18.808Z,101228.39
2023-02-27T20:51:45.766Z,101223.70
2023-02-27T20:54:16.691Z,101226.63
2023-02-27T20:56:43.985Z,101229.23
2023-02-27T20:59:14.438Z,101225.07
2023-02-27T21:01:51.324Z,101225.73
2023-02-27T21:04:42.192Z,101227.38
2023-02-27T21:07:11.110Z,101230.46
2023-02-27T21:09:38.045Z,101238.52
2023-02-27T21:12:06.592Z,101246.50
2023-02-27T21:14:33.817Z,101246.06
2023-02-27T21:17:00.936Z,101250.07
2023-02-27T21:19:27.640Z,101249.58
2023-02-27T21:21:54.328Z,101247.57
2023-02-27T21:24:21.584Z,101246.84
2023-02-27T21:26:49.548Z,101246.54
2023-02-27T21:29:19.651Z,101249.73
2023-02-27T21:31:49.114Z,101247.30
2023-02-27T21:34:20.608Z,101247.89
2023-02-27T21:36:47.433Z,101245.31
2023-02-27T21:39:18.877Z,101248.42
2023-02-27T21:41:46.014Z,101249.75
2023-02-27T21:44:15.849Z,101246.85
2023-02-27T21:46:43.000Z,101248.88
2023-02-27T21:49:16.885Z,101249.26
2023-02-27T21:51:43.779Z,101247.15
2023-02-27T21:54:12.749Z,101252.22
2023-02-27T21:56:41.670Z,101250.06
2023-02-27T21:59:09.328Z,101247.14
2023-02-27T22:01:37.118Z,101245.46
2023-02-27T22:04:04.364Z,101248.18
2023-02-27T22:06:33.051Z,101250.89
2023-02-27T22:09:02.939Z,101252.02
2023-02-27T22:11:30.003Z,101250.56
2023-02-27T22:13:57.208Z,101249.77
2023-02-27T22:16:24.421Z,101249.15
2023-02-27T22:18:51.877Z,101251.85
2023-02-27T22:21:22.821Z,101255.98
2023-02-27T22:23:50.226Z,101255.88
2023-02-27T22:26:24.314Z,101258.91
2023-02-27T22:28:52.415Z,101253.55
2023-02-27T22:31:21.646Z,101254.81
2023-02-27T22:33:51.272Z,101258.89
2023-02-27T22:36:21.211Z,101262.88
2023-02-27T22:38:48.759Z,101266.67
2023-02-27T22:41:18.802Z,101272.48
2023-02-27T22:43:46.495Z,101272.65
2023-02-27T22:46:17.154Z,101277.94
2023-02-27T22:48:43.942Z,101274.20
2023-02-27T22:51:14.530Z,101272.40
2023-02-27T22:53:46.136Z,101270.88
2023-02-27T22:56:16.302Z,101272.27
2023-02-27T22:58:44.934Z,101268.81
2023-02-27T23:01:18.379Z,101272.13
2023-02-27T23:03:47.114Z,101268.73
2023-02-27T23:06:23.159Z,101271.08
2023-02-27T23:08:50.008Z,101276.48
2023-02-27T23:11:18.745Z,101277.48
2023-02-27T23:13:45.372Z,101280.57
2023-02-27T23:16:13.761Z,101288.81
2023-02-27T23:18:46.304Z,101292.42
2023-02-27T23:21:15.400Z,101297.73
2023-02-27T23:23:42.113Z,101297.44
2023-02-27T23:26:08.992Z,101297.29
2023-02-27T23:28:36.846Z,101300.55
2023-02-27T23:31:05.696Z,101304.73
2023-02-27T23:33:33.050Z,101305.70
2023-02-27T23:36:01.153Z,101304.61
2023-02-27T23:38:28.517Z,101301.16
2023-02-27T23:40:55.477Z,101299.86
2023-02-27T23:43:41.855Z,101303.24
2023-02-27T23:46:10.697Z,101301.73
2023-02-27T23:48:38.035Z,101299.86
2023-02-27T23:51:06.133Z,101296.13
2023-02-27T23:53:34.263Z,101291.04
2023-02-27T23:56:01.493Z,101289.39
2023-02-27T23:58:28.210Z,101290.45
